Terminal Aerodrome Forecast
Issued by NWS

Home | Current Version | Previous Version | Text Only | Print | Product List | Glossary Off
Versions: 1 2 3 4 5 6 7 8 9 10 11 12 13 14 15 16 17 18 19 20 21 22 23 24 25 26 27 28 29 30 31 32 33

000
FTUS45 KGGW 241100
TAFOLF
TAF
KOLF 241128Z 2412/2512 31008KT 4SM -RASN OVC035
     FM241300 31010KT 2SM -SN OVC020
     FM241500 30014KT 4SM -SN OVC019
     FM241800 31017KT P6SM VCSH OVC018
     FM250000 33017KT P6SM BKN045=

USA.gov is the U.S. government's official web portal to all federal, state and local government web resources and services.